Terminal Aerodrome Forecast
Issued by NWS Charleston, WV

Current Version | Previous Version | Text Only | Print | Product List | Glossary Off
Versions: 1 2 3 4 5 6 7 8 9 10 11 12 13 14 15 16 17 18 19 20 21 22 23 24 25

000
FTUS41 KRLX 151405 AAC
TAFHTS
TAF AMD
KHTS 151405Z 1514/1612 24003KT P6SM BKN005
     FM151500 29003KT P6SM BKN025
     FM151700 28003KT P6SM SCT045
     FM160800 00000KT 2SM BR SCT001=

USA.gov is the U.S. government's official web portal to all federal, state and local government web resources and services.